| time (UTC) | temp C | wind direction | speed KPH | gust KPH | rain 1hr cm | rain 24hr cm | rain mn cm | humidity % | barometer mb |
| 20260506015847 | 9 | 351 | 1.6 | 3.2 | 0.36 | 2.44 | 2.44 | 98 | 1008.1 |
| 20260506015345 | 9 | 10 | 1.6 | 3.2 | 0.23 | 2.39 | 2.39 | 98 | 1007.9 |
| 20260506014841 | 9 | 56 | 0.0 | 3.2 | 0.05 | 2.36 | 2.36 | 98 | 1007.9 |
| 20260506014338 | 9 | 23 | 1.6 | 3.2 | 0.05 | 2.36 | 2.36 | 98 | 1007.7 |
| 20260506013835 | 9 | 55 | 0.0 | 3.2 | 0.13 | 2.36 | 2.36 | 98 | 1007.6 |
| 20260506013332 | 9 | 37 | 0.0 | 1.6 | 0.23 | 2.36 | 2.36 | 98 | 1007.7 |
| 20260506012828 | 9 | 60 | 1.6 | 3.2 | 0.30 | 2.34 | 2.34 | 98 | 1007.6 |
| 20260506012326 | 9 | 65 | 3.2 | 4.8 | 0.18 | 2.31 | 2.31 | 98 | 1007.5 |
| 20260506011823 | 9 | 84 | 1.6 | 3.2 | 0.13 | 2.29 | 2.29 | 98 | 1007.6 |
| 20260506011319 | 9 | 317 | 0.0 | 3.2 | 0.13 | 2.29 | 2.29 | 98 | 1007.6 |
| 20260506010817 | 9 | 65 | 3.2 | 4.8 | 0.13 | 2.26 | 2.26 | 98 | 1007.6 |
| 20260506010315 | 9 | 37 | 0.0 | 3.2 | 0.05 | 2.26 | 2.26 | 98 | 1007.3 |
| 20260506005811 | 9 | 15 | 3.2 | 3.2 | 0.05 | 2.26 | 2.26 | 98 | 1007.4 |
| 20260506005308 | 9 | 41 | 0.0 | 4.8 | 0.05 | 2.24 | 2.24 | 98 | 1007.6 |
| 20260506004804 | 9 | 315 | 0.0 | 4.8 | 0.05 | 2.24 | 2.24 | 98 | 1007.6 |
| 20260506004302 | 9 | 65 | 3.2 | 6.4 | 0.05 | 2.24 | 2.24 | 98 | 1007.7 |
| 20260506003758 | 9 | 33 | 0.0 | 3.2 | 0.23 | 2.24 | 2.24 | 98 | 1007.5 |
| 20260506003254 | 9 | 62 | 0.0 | 4.8 | 0.23 | 2.21 | 2.21 | 98 | 1007.7 |
| 20260506002751 | 9 | 340 | 0.0 | 6.4 | 0.13 | 2.18 | 2.18 | 98 | 1007.7 |
| 20260506002247 | 9 | 348 | 1.6 | 6.4 | 0.18 | 2.18 | 2.18 | 98 | 1007.6 |
| 20260506001743 | 9 | 37 | 0.0 | 4.8 | 0.18 | 2.16 | 2.16 | 98 | 1007.6 |
| 20260506001241 | 9 | 331 | 4.8 | 8.0 | 0.18 | 2.16 | 2.16 | 98 | 1007.3 |
| 20260506000737 | 9 | 27 | 3.2 | 3.2 | 0.23 | 2.13 | 2.13 | 98 | 1007.2 |
| 20260506000235 | 9 | 353 | 3.2 | 8.0 | 0.30 | 2.11 | 2.11 | 98 | 1007.2 |
| 20260505235732 | 9 | 29 | 0.0 | 4.8 | 0.36 | 2.11 | 2.11 | 98 | 1007.1 |
| 20260505235229 | 9 | 61 | 4.8 | 6.4 | 0.30 | 2.06 | 2.06 | 98 | 1007.0 |
| 20260505234726 | 9 | 42 | 0.0 | 4.8 | 0.23 | 2.03 | 2.03 | 98 | 1006.9 |
| 20260505234223 | 9 | 91 | 6.4 | 9.7 | 0.18 | 2.03 | 2.03 | 98 | 1007.0 |
| 20260505233720 | 10 | 253 | 0.0 | 8.0 | 0.05 | 2.01 | 2.01 | 98 | 1007.0 |
| 20260505233218 | 10 | 42 | 0.0 | 6.4 | 0.05 | 1.98 | 1.98 | 98 | 1007.0 |
| 20260505232715 | 10 | 330 | 1.6 | 4.8 | 0.05 | 1.98 | 1.98 | 98 | 1006.9 |
| 20260505232212 | 10 | 48 | 4.8 | 6.4 | 0.05 | 1.98 | 1.98 | 98 | 1007.2 |
| 20260505231709 | 10 | 72 | 4.8 | 8.0 | 0.05 | 1.98 | 1.98 | 98 | 1007.3 |
| 20260505231208 | 10 | 62 | 0.0 | 8.0 | 0.05 | 1.98 | 1.98 | 98 | 1007.1 |
| 20260505230706 | 10 | 42 | 3.2 | 4.8 | 0.13 | 1.98 | 1.98 | 97 | 1007.0 |
| 20260505230202 | 10 | 7 | 0.0 | 4.8 | 0.53 | 1.96 | 1.96 | 97 | 1007.5 |
| 20260505225658 | 10 | 33 | 3.2 | 3.2 | 0.79 | 1.93 | 1.93 | 97 | 1007.8 |
| 20260505225155 | 10 | 345 | 0.0 | 6.4 | 0.71 | 1.85 | 1.85 | 97 | 1007.9 |
| 20260505224651 | 10 | 359 | 3.2 | 6.4 | 0.71 | 1.80 | 1.80 | 97 | 1007.8 |
| 20260505224149 | 10 | 16 | 3.2 | 4.8 | 0.36 | 1.75 | 1.75 | 97 | 1007.7 |
| 20260505223646 | 10 | 26 | 3.2 | 4.8 | 0.23 | 1.70 | 1.70 | 97 | 1007.7 |
| 20260505223142 | 10 | 349 | 3.2 | 4.8 | 0.48 | 1.68 | 1.68 | 97 | 1007.7 |
| 20260505222638 | 10 | 195 | 0.0 | 6.4 | 0.43 | 1.65 | 1.65 | 97 | 1007.9 |
| 20260505222135 | 10 | 353 | 3.2 | 9.7 | 0.23 | 1.60 | 1.60 | 97 | 1007.3 |
| 20260505221632 | 10 | 50 | 1.6 | 11.3 | 0.30 | 1.57 | 1.57 | 97 | 1007.1 |
| 20260505221128 | 10 | 358 | 1.6 | 8.0 | 0.30 | 1.55 | 1.55 | 97 | 1007.3 |
| 20260505220626 | 10 | 335 | 0.0 | 4.8 | 0.48 | 1.52 | 1.52 | 97 | 1007.4 |
| 20260505220123 | 10 | 349 | 4.8 | 11.3 | 0.71 | 1.50 | 1.50 | 97 | 1007.4 |
| 20260505215621 | 10 | 219 | 3.2 | 8.0 | 0.71 | 1.45 | 1.45 | 97 | 1007.3 |
| 20260505215119 | 10 | 92 | 1.6 | 8.0 | 0.43 | 1.37 | 1.37 | 97 | 1007.6 |
| 20260505214617 | 10 | 340 | 3.2 | 4.8 | 0.23 | 1.32 | 1.32 | 97 | 1007.2 |
| 20260505214113 | 10 | 349 | 0.0 | 4.8 | 0.30 | 1.32 | 1.32 | 97 | 1006.8 |
| 20260505213611 | 10 | 205 | 1.6 | 4.8 | 0.53 | 1.30 | 1.30 | 97 | 1007.0 |
| 20260505213107 | 10 | 201 | 4.8 | 11.3 | 0.36 | 1.24 | 1.24 | 96 | 1007.0 |
| 20260505212603 | 11 | 352 | 3.2 | 9.7 | 0.18 | 1.19 | 1.19 | 97 | 1007.1 |
| 20260505212102 | 11 | 243 | 3.2 | 9.7 | 0.18 | 1.19 | 1.19 | 96 | 1006.7 |
| 20260505211558 | 11 | 312 | 3.2 | 6.4 | 0.36 | 1.17 | 1.17 | 97 | 1006.9 |
| 20260505211055 | 11 | 13 | 1.6 | 8.0 | 0.36 | 1.14 | 1.14 | 97 | 1006.7 |
| 20260505210551 | 11 | 219 | 1.6 | 8.0 | 0.48 | 1.12 | 1.12 | 96 | 1006.8 |
| 20260505210049 | 11 | 88 | 1.6 | 6.4 | 0.43 | 1.07 | 1.07 | 96 | 1006.9 |
| 20260505205546 | 11 | 326 | 3.2 | 8.0 | 0.43 | 1.04 | 1.04 | 96 | 1006.9 |
| 20260505205044 | 11 | 296 | 1.6 | 8.0 | 0.43 | 1.02 | 1.02 | 96 | 1006.8 |
| 20260505204541 | 11 | 36 | 3.2 | 9.7 | 0.30 | 0.97 | 0.97 | 96 | 1007.1 |
| 20260505204038 | 11 | 302 | 1.6 | 6.4 | 0.61 | 0.94 | 0.94 | 96 | 1007.1 |
| 20260505203535 | 12 | 330 | 4.8 | 8.0 | 0.61 | 0.91 | 0.91 | 96 | 1007.2 |
| 20260505203032 | 13 | 223 | 3.2 | 9.7 | 0.48 | 0.84 | 0.84 | 95 | 1007.0 |
| 20260505202528 | 13 | 247 | 1.6 | 9.7 | 0.53 | 0.81 | 0.81 | 96 | 1006.8 |
| 20260505202024 | 13 | 201 | 1.6 | 8.0 | 0.23 | 0.74 | 0.74 | 96 | 1006.6 |
| 20260505201521 | 13 | 203 | 1.6 | 6.4 | 0.23 | 0.71 | 0.71 | 96 | 1006.8 |
| 20260505201018 | 13 | 195 | 0.0 | 9.7 | 0.23 | 0.71 | 0.71 | 95 | 1006.8 |
| 20260505200516 | 13 | 240 | 0.0 | 8.0 | 0.13 | 0.69 | 0.69 | 95 | 1006.9 |
| 20260505200013 | 13 | 228 | 3.2 | 6.4 | 0.23 | 0.66 | 0.66 | 95 | 1006.9 |
| 20260505195509 | 14 | 205 | 1.6 | 6.4 | 0.23 | 0.66 | 0.66 | 95 | 1006.9 |
| 20260505195007 | 14 | 251 | 1.6 | 4.8 | 0.36 | 0.64 | 0.64 | 95 | 1006.9 |
| 20260505194504 | 13 | 17 | 0.0 | 3.2 | 0.43 | 0.61 | 0.61 | 94 | 1006.9 |
| 20260505194004 | 14 | 242 | 0.0 | 3.2 | 0.66 | 0.56 | 0.56 | 94 | 1007.0 |
| 20260505193502 | 14 | 207 | 1.6 | 4.8 | 0.79 | 0.53 | 0.53 | 94 | 1007.0 |
| 20260505192959 | 14 | 76 | 1.6 | 3.2 | 0.79 | 0.46 | 0.46 | 93 | 1006.8 |
| 20260505192457 | 14 | 211 | 0.0 | 3.2 | 0.97 | 0.41 | 0.41 | 93 | 1007.0 |
| 20260505191954 | 14 | 177 | 0.0 | 4.8 | 0.84 | 0.33 | 0.33 | 93 | 1007.1 |
| 20260505191453 | 14 | 205 | 1.6 | 4.8 | 0.66 | 0.25 | 0.25 | 92 | 1007.0 |
| 20260505190950 | 14 | 163 | 1.6 | 4.8 | 0.48 | 0.18 | 0.18 | 91 | 1006.8 |
| 20260505190444 | 14 | 226 | 1.6 | 6.4 | 0.23 | 0.15 | 0.15 | 91 | 1007.0 |
| 20260505185940 | 15 | 201 | 3.2 | 3.2 | 0.13 | 0.10 | 0.10 | 90 | 1006.9 |
| 20260505185438 | 15 | 235 | 0.0 | 3.2 | 0.23 | 0.10 | 0.10 | 89 | 1007.0 |
| 20260505184934 | 15 | 224 | 3.2 | 4.8 | 0.30 | 0.10 | 0.10 | 88 | 1006.9 |
| 20260505184431 | 15 | 215 | 3.2 | 8.0 | 0.30 | 0.05 | 0.05 | 86 | 1007.0 |
| 20260505183927 | 15 | 250 | 1.6 | 11.3 | 0.23 | 0.05 | 0.05 | 84 | 1007.2 |
| 20260505183424 | 15 | 214 | 8.0 | 16.1 | 0.05 | 0.00 | 0.00 | 80 | 1007.1 |
| 20260505182921 | 16 | 214 | 1.6 | 11.3 | 0.00 | 0.00 | 0.00 | 79 | 1006.9 |
| 20260505182418 | 16 | 221 | 3.2 | 14.5 | 0.00 | 0.00 | 0.00 | 78 | 1007.0 |
| 20260505181914 | 16 | 219 | 9.7 | 16.1 | 0.00 | 0.00 | 0.00 | 77 | 1006.7 |
| 20260505181412 | 16 | 219 | 6.4 | 14.5 | 0.00 | 0.00 | 0.00 | 76 | 1006.8 |
| 20260505180908 | 16 | 223 | 4.8 | 17.7 | 0.00 | 0.00 | 0.00 | 75 | 1006.8 |
| 20260505180405 | 16 | 194 | 4.8 | 20.9 | 0.00 | 0.00 | 0.00 | 75 | 1006.9 |
| 20260505175901 | 16 | 41 | 4.8 | 16.1 | 0.00 | 0.00 | 0.00 | 74 | 1006.7 |
| 20260505175358 | 17 | 228 | 8.0 | 17.7 | 0.00 | 0.00 | 0.00 | 73 | 1006.9 |
| 20260505174854 | 17 | 358 | 6.4 | 16.1 | 0.00 | 0.00 | 0.00 | 73 | 1006.7 |
| 20260505174352 | 17 | 33 | 3.2 | 9.7 | 0.00 | 0.00 | 0.00 | 72 | 1006.9 |
| 20260505173848 | 17 | 273 | 4.8 | 8.0 | 0.00 | 0.00 | 0.00 | 72 | 1006.6 |
| 20260505173345 | 17 | 249 | 4.8 | 14.5 | 0.00 | 0.00 | 0.00 | 70 | 1006.6 |
| 20260505172842 | 18 | 213 | 4.8 | 16.1 | 0.00 | 0.00 | 0.00 | 71 | 1006.6 |
| 20260505172339 | 17 | 237 | 3.2 | 14.5 | 0.00 | 0.00 | 0.00 | 70 | 1006.6 |
| 20260505171839 | 17 | 203 | 3.2 | 16.1 | 0.00 | 0.00 | 0.00 | 71 | 1006.5 |
| 20260505171336 | 17 | 207 | 4.8 | 14.5 | 0.00 | 0.00 | 0.00 | 71 | 1006.7 |
| 20260505170833 | 17 | 212 | 6.4 | 17.7 | 0.00 | 0.00 | 0.00 | 72 | 1006.5 |
| 20260505170330 | 17 | 213 | 6.4 | 20.9 | 0.00 | 0.00 | 0.00 | 71 | 1006.5 |
| 20260505165825 | 17 | 215 | 0.0 | 14.5 | 0.00 | 0.00 | 0.00 | 71 | 1006.6 |
| 20260505165321 | 17 | 229 | 8.0 | 17.7 | 0.00 | 0.00 | 0.00 | 71 | 1006.6 |
| 20260505164817 | 17 | 353 | 6.4 | 19.3 | 0.00 | 0.00 | 0.00 | 70 | 1006.5 |
| 20260505164314 | 17 | 232 | 4.8 | 6.4 | 0.00 | 0.00 | 0.00 | 69 | 1006.6 |
| 20260505163812 | 18 | 245 | 8.0 | 20.9 | 0.00 | 0.00 | 0.00 | 68 | 1006.4 |
| 20260505163310 | 18 | 214 | 8.0 | 14.5 | 0.00 | 0.00 | 0.00 | 67 | 1006.4 |
| 20260505162808 | 18 | 224 | 3.2 | 9.7 | 0.00 | 0.00 | 0.00 | 68 | 1006.3 |
| 20260505162306 | 18 | 212 | 4.8 | 8.0 | 0.00 | 0.00 | 0.00 | 67 | 1006.4 |
| 20260505161802 | 18 | 4 | 6.4 | 12.9 | 0.00 | 0.00 | 0.00 | 67 | 1006.3 |
| 20260505161259 | 18 | 169 | 4.8 | 11.3 | 0.00 | 0.00 | 0.00 | 67 | 1006.3 |
| 20260505160756 | 18 | 20 | 0.0 | 24.1 | 0.00 | 0.00 | 0.00 | 66 | 1006.5 |
| 20260505160254 | 18 | 214 | 4.8 | 12.9 | 0.00 | 0.00 | 0.00 | 66 | 1006.4 |
| 20260505153233 | 20 | 216 | 9.7 | 17.7 | 0.00 | 0.00 | 0.00 | 61 | 1005.9 |
| 20260505152730 | 20 | 235 | 6.4 | 11.3 | 0.00 | 0.00 | 0.00 | 62 | 1005.7 |
| 20260505152226 | 20 | 187 | 1.6 | 11.3 | 0.00 | 0.00 | 0.00 | 63 | 1005.6 |
| 20260505151720 | 20 | 223 | 4.8 | 11.3 | 0.00 | 0.00 | 0.00 | 62 | 1005.5 |
| 20260505151218 | 20 | 201 | 1.6 | 14.5 | 0.00 | 0.00 | 0.00 | 62 | 1005.2 |
| 20260505150715 | 20 | 209 | 4.8 | 11.3 | 0.00 | 0.00 | 0.00 | 61 | 1005.0 |
| 20260505150212 | 20 | 207 | 1.6 | 9.7 | 0.00 | 0.00 | 0.00 | 63 | 1005.0 |
| 20260505140645 | 18 | 267 | 9.7 | 17.7 | 0.00 | 0.00 | 0.00 | 65 | 1005.1 |
| 20260505140142 | 18 | 204 | 4.8 | 24.1 | 0.00 | 0.00 | 0.00 | 65 | 1005.1 |
| 20260505130106 | 17 | 191 | 1.6 | 4.8 | 0.00 | 0.00 | 0.00 | 72 | 1004.7 |
| 20260505124555 | 16 | 216 | 4.8 | 11.3 | 0.00 | 0.00 | 0.00 | 71 | 1005.0 |
| 20260505124051 | 16 | 225 | 1.6 | 9.7 | 0.00 | 0.00 | 0.00 | 72 | 1005.1 |
| 20260505123548 | 16 | 187 | 1.6 | 11.3 | 0.00 | 0.00 | 0.00 | 71 | 1004.8 |
| 20260505123044 | 16 | 183 | 3.2 | 12.9 | 0.00 | 0.00 | 0.00 | 71 | 1004.8 |
| 20260505122541 | 16 | 230 | 4.8 | 16.1 | 0.00 | 0.00 | 0.00 | 71 | 1004.8 |
| 20260505122038 | 16 | 200 | 8.0 | 12.9 | 0.00 | 0.00 | 0.00 | 70 | 1004.8 |
| 20260505121535 | 16 | 67 | 4.8 | 14.5 | 0.00 | 0.00 | 0.00 | 70 | 1004.7 |
| 20260505121032 | 16 | 17 | 1.6 | 6.4 | 0.00 | 0.00 | 0.00 | 71 | 1004.6 |
| 20260505120528 | 16 | 303 | 1.6 | 17.7 | 0.00 | 0.00 | 0.00 | 70 | 1004.3 |
| 20260505120023 | 16 | 248 | 3.2 | 9.7 | 0.00 | 0.00 | 0.00 | 71 | 1004.2 |
| 20260505115518 | 16 | 229 | 0.0 | 12.9 | 0.00 | 0.00 | 0.00 | 71 | 1003.9 |
| 20260505115016 | 16 | 242 | 0.0 | 8.0 | 0.00 | 0.00 | 0.00 | 71 | 1004.0 |
| 20260505114513 | 16 | 78 | 4.8 | 9.7 | 0.00 | 0.00 | 0.00 | 71 | 1003.6 |
| 20260505114009 | 16 | 224 | 3.2 | 8.0 | 0.00 | 0.00 | 0.00 | 72 | 1003.4 |
| 20260505113506 | 16 | 188 | 1.6 | 4.8 | 0.00 | 0.00 | 0.00 | 71 | 1002.9 |
| 20260505113001 | 16 | 212 | 4.8 | 8.0 | 0.00 | 0.00 | 0.00 | 71 | 1003.1 |
| 20260505112459 | 16 | 284 | 1.6 | 11.3 | 0.00 | 0.00 | 0.00 | 70 | 1003.1 |
| 20260505111956 | 16 | 202 | 11.3 | 11.3 | 0.00 | 0.00 | 0.00 | 70 | 1003.0 |
| 20260505111456 | 16 | 89 | 0.0 | 14.5 | 0.00 | 0.00 | 0.00 | 70 | 1002.9 |
| 20260505110952 | 16 | 204 | 6.4 | 14.5 | 0.00 | 0.00 | 0.00 | 69 | 1003.2 |
| 20260505110449 | 16 | 154 | 3.2 | 16.1 | 0.00 | 0.00 | 0.00 | 69 | 1003.1 |
| 20260505101920 | 17 | 195 | 4.8 | 11.3 | 0.00 | 0.00 | 0.00 | 71 | 1003.0 |
| 20260505101415 | 17 | 273 | 1.6 | 9.7 | 0.00 | 0.00 | 0.00 | 72 | 1003.1 |
| 20260505100911 | 17 | 309 | 1.6 | 12.9 | 0.00 | 0.00 | 0.00 | 70 | 1003.0 |
| 20260505100408 | 17 | 84 | 3.2 | 8.0 | 0.00 | 0.00 | 0.00 | 67 | 1003.1 |
| 20260505095903 | 17 | 224 | 4.8 | 9.7 | 0.00 | 0.00 | 0.00 | 65 | 1002.9 |
| 20260505095401 | 18 | 234 | 1.6 | 16.1 | 0.00 | 0.00 | 0.00 | 64 | 1002.9 |
| 20260505094857 | 18 | 222 | 3.2 | 6.4 | 0.00 | 0.00 | 0.00 | 65 | 1002.5 |
| 20260505094354 | 18 | 230 | 6.4 | 12.9 | 0.00 | 0.00 | 0.00 | 64 | 1002.5 |
| 20260505093849 | 18 | 202 | 4.8 | 9.7 | 0.00 | 0.00 | 0.00 | 64 | 1002.3 |
| 20260505093347 | 18 | 237 | 3.2 | 11.3 | 0.00 | 0.00 | 0.00 | 64 | 1002.1 |
| 20260505092844 | 18 | 57 | 4.8 | 11.3 | 0.00 | 0.00 | 0.00 | 64 | 1002.1 |
| 20260505092342 | 18 | 205 | 4.8 | 14.5 | 0.00 | 0.00 | 0.00 | 64 | 1002.1 |
| 20260505091839 | 18 | 218 | 0.0 | 11.3 | 0.00 | 0.00 | 0.00 | 64 | 1002.2 |
| 20260505091337 | 18 | 202 | 3.2 | 14.5 | 0.00 | 0.00 | 0.00 | 63 | 1002.2 |
| 20260505090835 | 18 | 229 | 4.8 | 11.3 | 0.00 | 0.00 | 0.00 | 63 | 1002.0 |
| 20260505090333 | 18 | 196 | 1.6 | 8.0 | 0.00 | 0.00 | 0.00 | 63 | 1002.1 |
| 20260505085830 | 18 | 214 | 6.4 | 16.1 | 0.00 | 0.00 | 0.00 | 62 | 1001.7 |
| 20260505085328 | 18 | 233 | 6.4 | 12.9 | 0.00 | 0.00 | 0.00 | 62 | 1001.9 |
| 20260505084825 | 18 | 133 | 1.6 | 8.0 | 0.00 | 0.00 | 0.00 | 62 | 1001.8 |
| 20260505084324 | 18 | 196 | 4.8 | 9.7 | 0.00 | 0.00 | 0.00 | 61 | 1001.8 |
| 20260505083820 | 18 | 151 | 1.6 | 14.5 | 0.00 | 0.00 | 0.00 | 61 | 1001.7 |
| 20260505083318 | 18 | 216 | 3.2 | 9.7 | 0.00 | 0.00 | 0.00 | 61 | 1001.8 |
| 20260505082814 | 18 | 261 | 0.0 | 11.3 | 0.00 | 0.00 | 0.00 | 60 | 1001.7 |
| 20260505082311 | 18 | 226 | 6.4 | 12.9 | 0.00 | 0.00 | 0.00 | 61 | 1001.5 |
| 20260505081807 | 19 | 273 | 3.2 | 22.5 | 0.00 | 0.00 | 0.00 | 60 | 1001.6 |
| 20260505081304 | 19 | 24 | 4.8 | 12.9 | 0.00 | 0.00 | 0.00 | 60 | 1001.6 |
| 20260505080801 | 19 | 202 | 4.8 | 9.7 | 0.00 | 0.00 | 0.00 | 59 | 1001.3 |
| 20260505080256 | 19 | 233 | 3.2 | 8.0 | 0.00 | 0.00 | 0.00 | 60 | 1001.6 |
| 20260505075752 | 19 | 232 | 8.0 | 12.9 | 0.00 | 0.00 | 0.00 | 59 | 1001.5 |
| 20260505075250 | 19 | 240 | 3.2 | 11.3 | 0.00 | 0.00 | 0.00 | 58 | 1001.6 |
| 20260505074747 | 20 | 208 | 4.8 | 8.0 | 0.00 | 0.00 | 0.00 | 58 | 1001.5 |
| 20260505074244 | 19 | 223 | 3.2 | 8.0 | 0.00 | 0.00 | 0.00 | 58 | 1001.5 |
| 20260505073741 | 20 | 74 | 0.0 | 4.8 | 0.00 | 0.00 | 0.00 | 58 | 1001.5 |
| 20260505073239 | 20 | 168 | 4.8 | 14.5 | 0.00 | 0.00 | 0.00 | 56 | 1001.2 |
| 20260505072735 | 20 | 214 | 3.2 | 8.0 | 0.00 | 0.00 | 0.00 | 57 | 1001.5 |
| 20260505072232 | 20 | 223 | 3.2 | 8.0 | 0.00 | 0.00 | 0.00 | 56 | 1001.4 |
| 20260505071727 | 20 | 213 | 6.4 | 12.9 | 0.00 | 0.00 | 0.00 | 56 | 1001.4 |
| 20260505071224 | 20 | 199 | 4.8 | 19.3 | 0.00 | 0.00 | 0.00 | 57 | 1001.6 |
| 20260505070722 | 20 | 330 | 0.0 | 9.7 | 0.00 | 0.00 | 0.00 | 57 | 1001.4 |
| 20260505070218 | 20 | 206 | 4.8 | 11.3 | 0.00 | 0.00 | 0.00 | 57 | 1001.5 |
| 20260505065714 | 20 | 220 | 3.2 | 9.7 | 0.00 | 0.00 | 0.00 | 57 | 1001.4 |
| 20260505065211 | 20 | 215 | 4.8 | 9.7 | 0.00 | 0.00 | 0.00 | 58 | 1001.5 |
| 20260505064708 | 20 | 358 | 4.8 | 16.1 | 0.00 | 0.00 | 0.00 | 58 | 1001.5 |
| 20260505064206 | 20 | 149 | 0.0 | 9.7 | 0.00 | 0.00 | 0.00 | 58 | 1001.4 |
| 20260505063703 | 20 | 256 | 1.6 | 9.7 | 0.00 | 0.00 | 0.00 | 58 | 1001.6 |
| 20260505063159 | 20 | 210 | 4.8 | 8.0 | 0.00 | 0.00 | 0.00 | 59 | 1001.5 |
| 20260505062655 | 20 | 251 | 3.2 | 14.5 | 0.00 | 0.00 | 0.00 | 59 | 1001.3 |
| 20260505062153 | 20 | 250 | 3.2 | 12.9 | 0.00 | 0.00 | 0.00 | 59 | 1001.5 |
| 20260505061650 | 20 | 63 | 3.2 | 11.3 | 0.00 | 0.00 | 0.00 | 59 | 1001.6 |
| 20260505061148 | 20 | 151 | 6.4 | 16.1 | 0.00 | 0.00 | 0.00 | 59 | 1001.4 |
| 20260505060645 | 20 | 232 | 3.2 | 8.0 | 0.00 | 0.00 | 0.00 | 61 | 1001.4 |
| 20260505060142 | 20 | 218 | 6.4 | 11.3 | 0.00 | 0.00 | 0.00 | 60 | 1001.4 |
| 20260505055637 | 20 | 195 | 8.0 | 8.0 | 0.00 | 0.00 | 0.00 | 61 | 1001.6 |
| 20260505055134 | 20 | 210 | 4.8 | 12.9 | 0.00 | 0.00 | 0.00 | 60 | 1001.6 |
| 20260505054632 | 20 | 160 | 0.0 | 11.3 | 0.00 | 0.00 | 0.00 | 60 | 1001.6 |
| 20260505054130 | 20 | 212 | 6.4 | 14.5 | 0.00 | 0.00 | 0.00 | 60 | 1001.6 |
| 20260505053627 | 19 | 181 | 3.2 | 8.0 | 0.00 | 0.00 | 0.00 | 62 | 1001.7 |
| 20260505053123 | 19 | 198 | 8.0 | 12.9 | 0.00 | 0.00 | 0.00 | 63 | 1001.8 |
| 20260505052620 | 19 | 56 | 0.0 | 6.4 | 0.00 | 0.00 | 0.00 | 63 | 1002.0 |
| 20260505052118 | 19 | 241 | 4.8 | 9.7 | 0.00 | 0.00 | 0.00 | 63 | 1001.8 |
| 20260505051614 | 19 | 213 | 1.6 | 9.7 | 0.00 | 0.00 | 0.00 | 63 | 1002.0 |
| 20260505051112 | 19 | 233 | 6.4 | 11.3 | 0.00 | 0.00 | 0.00 | 64 | 1001.9 |
| 20260505050610 | 19 | 187 | 4.8 | 12.9 | 0.00 | 0.00 | 0.00 | 64 | 1001.8 |
| 20260505050108 | 19 | 206 | 0.0 | 6.4 | 0.00 | 0.00 | 0.00 | 64 | 1002.2 |
| 20260505041538 | 18 | 201 | 3.2 | 11.3 | 0.00 | 0.00 | 0.00 | 67 | 1002.2 |
| 20260505041035 | 18 | 245 | 3.2 | 9.7 | 0.00 | 0.00 | 0.00 | 67 | 1002.3 |
| 20260505040532 | 18 | 189 | 1.6 | 6.4 | 0.00 | 0.00 | 0.00 | 66 | 1002.4 |
| 20260505040030 | 18 | 148 | 0.0 | 8.0 | 0.00 | 0.00 | 0.00 | 67 | 1002.2 |
| 20260505035525 | 18 | 171 | 3.2 | 11.3 | 0.00 | 0.00 | 0.00 | 66 | 1002.4 |
| 20260505035022 | 18 | 218 | 3.2 | 9.7 | 0.00 | 0.00 | 0.00 | 66 | 1002.3 |
| 20260505034519 | 18 | 198 | 4.8 | 8.0 | 0.00 | 0.00 | 0.00 | 67 | 1002.5 |
| 20260505034016 | 18 | 210 | 4.8 | 8.0 | 0.00 | 0.00 | 0.00 | 67 | 1002.4 |
| 20260505033513 | 18 | 223 | 14.5 | 17.7 | 0.00 | 0.00 | 0.00 | 65 | 1002.5 |
| 20260505033011 | 18 | 158 | 3.2 | 8.0 | 0.00 | 0.00 | 0.00 | 65 | 1002.4 |
| 20260505032508 | 18 | 122 | 1.6 | 8.0 | 0.00 | 0.00 | 0.00 | 65 | 1002.7 |
| 20260505032004 | 18 | 224 | 4.8 | 8.0 | 0.00 | 0.00 | 0.00 | 64 | 1002.8 |
| 20260505031501 | 18 | 220 | 3.2 | 16.1 | 0.00 | 0.00 | 0.00 | 63 | 1002.8 |
| 20260505030958 | 18 | 207 | 6.4 | 8.0 | 0.00 | 0.00 | 0.00 | 63 | 1002.7 |
| 20260505030455 | 18 | 157 | 4.8 | 16.1 | 0.00 | 0.00 | 0.00 | 62 | 1002.7 |
| 20260505025949 | 18 | 200 | 4.8 | 16.1 | 0.00 | 0.00 | 0.00 | 62 | 1002.8 |
| 20260505025447 | 18 | 210 | 3.2 | 8.0 | 0.00 | 0.00 | 0.00 | 64 | 1002.8 |
| 20260505024946 | 18 | 187 | 3.2 | 11.3 | 0.00 | 0.00 | 0.00 | 62 | 1002.8 |
| 20260505024443 | 18 | 149 | 0.0 | 8.0 | 0.00 | 0.00 | 0.00 | 62 | 1002.9 |
| 20260505023940 | 18 | 195 | 1.6 | 6.4 | 0.00 | 0.00 | 0.00 | 63 | 1002.8 |
| 20260505023437 | 18 | 116 | 1.6 | 8.0 | 0.00 | 0.00 | 0.00 | 62 | 1002.7 |
| 20260505022934 | 18 | 206 | 0.0 | 9.7 | 0.00 | 0.00 | 0.00 | 61 | 1002.8 |
| 20260505022432 | 18 | 147 | 0.0 | 4.8 | 0.00 | 0.00 | 0.00 | 61 | 1002.9 |
| 20260505021929 | 19 | 202 | 3.2 | 6.4 | 0.00 | 0.00 | 0.00 | 60 | 1002.7 |
| 20260505021425 | 19 | 208 | 0.0 | 8.0 | 0.00 | 0.00 | 0.00 | 59 | 1002.9 |
| 20260505020921 | 19 | 230 | 0.0 | 11.3 | 0.00 | 0.00 | 0.00 | 59 | 1002.7 |
| 20260505020416 | 19 | 187 | 0.0 | 6.4 | 0.00 | 0.00 | 0.00 | 58 | 1002.6 |
| 20260505015913 | 20 | 282 | 0.0 | 8.0 | 0.00 | 0.00 | 0.00 | 58 | 1002.5 |